sensor_id;sensor_type;location;lat;lon;timestamp;P1;durP1;ratioP1;P2;durP2;ratioP2
13807;SDS011;40769;51.512;5.494;2023-02-20T00:00:29;7.70;;;7.00;;
13807;SDS011;40769;51.512;5.494;2023-02-20T00:02:56;6.72;;;6.05;;
13807;SDS011;40769;51.512;5.494;2023-02-20T00:05:24;6.47;;;5.63;;
13807;SDS011;40769;51.512;5.494;2023-02-20T00:07:50;4.95;;;4.50;;
13807;SDS011;40769;51.512;5.494;2023-02-20T00:10:16;7.57;;;6.03;;
13807;SDS011;40769;51.512;5.494;2023-02-20T00:12:42;7.10;;;6.50;;
13807;SDS011;40769;51.512;5.494;2023-02-20T00:15:08;8.57;;;7.65;;
13807;SDS011;40769;51.512;5.494;2023-02-20T00:17:36;8.50;;;7.50;;
13807;SDS011;40769;51.512;5.494;2023-02-20T00:20:01;5.78;;;5.25;;
13807;SDS011;40769;51.512;5.494;2023-02-20T00:22:27;6.55;;;5.85;;
13807;SDS011;40769;51.512;5.494;2023-02-20T00:24:53;7.47;;;6.68;;
13807;SDS011;40769;51.512;5.494;2023-02-20T00:27:18;7.32;;;6.68;;
13807;SDS011;40769;51.512;5.494;2023-02-20T00:29:44;7.75;;;7.05;;
13807;SDS011;40769;51.512;5.494;2023-02-20T00:32:10;6.03;;;5.43;;
13807;SDS011;40769;51.512;5.494;2023-02-20T00:34:36;7.88;;;7.18;;
13807;SDS011;40769;51.512;5.494;2023-02-20T00:37:02;8.00;;;7.20;;
13807;SDS011;40769;51.512;5.494;2023-02-20T00:39:28;8.05;;;7.18;;
13807;SDS011;40769;51.512;5.494;2023-02-20T00:41:55;8.18;;;7.45;;
13807;SDS011;40769;51.512;5.494;2023-02-20T00:44:21;6.57;;;5.97;;
13807;SDS011;40769;51.512;5.494;2023-02-20T00:46:47;7.10;;;6.40;;
13807;SDS011;40769;51.512;5.494;2023-02-20T00:49:12;7.35;;;6.65;;
13807;SDS011;40769;51.512;5.494;2023-02-20T00:51:38;7.40;;;6.70;;
13807;SDS011;40769;51.512;5.494;2023-02-20T00:54:04;7.47;;;6.78;;
13807;SDS011;40769;51.512;5.494;2023-02-20T00:56:30;8.38;;;7.47;;
13807;SDS011;40769;51.512;5.494;2023-02-20T00:58:56;8.20;;;7.38;;
13807;SDS011;40769;51.512;5.494;2023-02-20T01:01:21;7.40;;;6.70;;
13807;SDS011;40769;51.512;5.494;2023-02-20T01:03:48;9.48;;;8.48;;
13807;SDS011;40769;51.512;5.494;2023-02-20T01:06:14;7.50;;;6.80;;
13807;SDS011;40769;51.512;5.494;2023-02-20T01:08:40;6.88;;;6.28;;
13807;SDS011;40769;51.512;5.494;2023-02-20T01:11:06;7.93;;;6.72;;
13807;SDS011;40769;51.512;5.494;2023-02-20T01:13:31;8.73;;;7.93;;
13807;SDS011;40769;51.512;5.494;2023-02-20T01:15:57;6.57;;;5.93;;
13807;SDS011;40769;51.512;5.494;2023-02-20T01:18:23;6.38;;;5.78;;
13807;SDS011;40769;51.512;5.494;2023-02-20T01:20:49;10.00;;;7.78;;
13807;SDS011;40769;51.512;5.494;2023-02-20T01:23:15;8.38;;;7.07;;
13807;SDS011;40769;51.512;5.494;2023-02-20T01:25:40;6.25;;;5.65;;
13807;SDS011;40769;51.512;5.494;2023-02-20T01:28:06;7.40;;;6.68;;
13807;SDS011;40769;51.512;5.494;2023-02-20T01:30:32;8.07;;;7.28;;
13807;SDS011;40769;51.512;5.494;2023-02-20T01:32:57;9.25;;;7.93;;
13807;SDS011;40769;51.512;5.494;2023-02-20T01:35:23;8.10;;;7.30;;
13807;SDS011;40769;51.512;5.494;2023-02-20T01:37:49;8.57;;;7.78;;
13807;SDS011;40769;51.512;5.494;2023-02-20T01:40:15;7.68;;;6.82;;
13807;SDS011;40769;51.512;5.494;2023-02-20T01:42:45;8.65;;;7.78;;
13807;SDS011;40769;51.512;5.494;2023-02-20T01:47:46;8.32;;;7.53;;
13807;SDS011;40769;51.512;5.494;2023-02-20T01:50:13;8.05;;;7.25;;
13807;SDS011;40769;51.512;5.494;2023-02-20T01:52:39;9.45;;;8.45;;
13807;SDS011;40769;51.512;5.494;2023-02-20T01:55:10;8.65;;;7.85;;
13807;SDS011;40769;51.512;5.494;2023-02-20T01:57:52;8.60;;;7.70;;
13807;SDS011;40769;51.512;5.494;2023-02-20T02:00:25;7.50;;;6.80;;
13807;SDS011;40769;51.512;5.494;2023-02-20T02:03:04;8.75;;;7.50;;
13807;SDS011;40769;51.512;5.494;2023-02-20T02:05:34;8.70;;;7.80;;
13807;SDS011;40769;51.512;5.494;2023-02-20T02:08:03;9.52;;;8.52;;
13807;SDS011;40769;51.512;5.494;2023-02-20T02:10:33;10.07;;;8.00;;
13807;SDS011;40769;51.512;5.494;2023-02-20T02:13:20;9.82;;;8.73;;
13807;SDS011;40769;51.512;5.494;2023-02-20T02:15:49;9.90;;;8.90;;
13807;SDS011;40769;51.512;5.494;2023-02-20T02:18:20;9.65;;;8.57;;
13807;SDS011;40769;51.512;5.494;2023-02-20T02:41:04;10.13;;;9.23;;
13807;SDS011;40769;51.512;5.494;2023-02-20T02:43:59;11.85;;;10.57;;
13807;SDS011;40769;51.512;5.494;2023-02-20T02:46:42;11.60;;;10.52;;
13807;SDS011;40769;51.512;5.494;2023-02-20T02:51:46;11.27;;;10.20;;
13807;SDS011;40769;51.512;5.494;2023-02-20T02:54:15;12.45;;;11.15;;
13807;SDS011;40769;51.512;5.494;2023-02-20T02:56:45;12.98;;;11.48;;
13807;SDS011;40769;51.512;5.494;2023-02-20T02:59:13;14.75;;;13.23;;
13807;SDS011;40769;51.512;5.494;2023-02-20T03:01:45;16.27;;;13.85;;
13807;SDS011;40769;51.512;5.494;2023-02-20T03:04:16;13.98;;;12.57;;
13807;SDS011;40769;51.512;5.494;2023-02-20T03:06:47;16.35;;;14.18;;
13807;SDS011;40769;51.512;5.494;2023-02-20T03:09:20;16.33;;;14.73;;
13807;SDS011;40769;51.512;5.494;2023-02-20T03:11:53;14.15;;;12.75;;
13807;SDS011;40769;51.512;5.494;2023-02-20T03:14:22;15.48;;;14.00;;
13807;SDS011;40769;51.512;5.494;2023-02-20T03:17:14;16.27;;;14.73;;
13807;SDS011;40769;51.512;5.494;2023-02-20T03:19:47;16.10;;;14.18;;
13807;SDS011;40769;51.512;5.494;2023-02-20T03:24:58;16.70;;;14.25;;
13807;SDS011;40769;51.512;5.494;2023-02-20T03:30:03;16.65;;;14.85;;
13807;SDS011;40769;51.512;5.494;2023-02-20T03:32:39;14.50;;;13.13;;
13807;SDS011;40769;51.512;5.494;2023-02-20T03:35:25;14.75;;;13.30;;
13807;SDS011;40769;51.512;5.494;2023-02-20T03:38:10;13.95;;;12.65;;
13807;SDS011;40769;51.512;5.494;2023-02-20T03:40:58;17.98;;;14.43;;
13807;SDS011;40769;51.512;5.494;2023-02-20T03:43:44;12.80;;;11.48;;
13807;SDS011;40769;51.512;5.494;2023-02-20T03:46:12;14.38;;;12.88;;
13807;SDS011;40769;51.512;5.494;2023-02-20T03:51:20;14.02;;;12.60;;
13807;SDS011;40769;51.512;5.494;2023-02-20T03:53:47;12.38;;;11.10;;
13807;SDS011;40769;51.512;5.494;2023-02-20T03:56:15;13.95;;;12.45;;
13807;SDS011;40769;51.512;5.494;2023-02-20T03:59:13;14.43;;;12.93;;
13807;SDS011;40769;51.512;5.494;2023-02-20T04:01:40;12.35;;;11.13;;
13807;SDS011;40769;51.512;5.494;2023-02-20T04:04:09;15.43;;;13.70;;
13807;SDS011;40769;51.512;5.494;2023-02-20T04:06:40;13.55;;;12.27;;
13807;SDS011;40769;51.512;5.494;2023-02-20T04:09:13;11.70;;;10.50;;
13807;SDS011;40769;51.512;5.494;2023-02-20T04:11:44;13.07;;;11.68;;
13807;SDS011;40769;51.512;5.494;2023-02-20T04:14:14;16.15;;;14.07;;
13807;SDS011;40769;51.512;5.494;2023-02-20T04:16:44;14.20;;;12.77;;
13807;SDS011;40769;51.512;5.494;2023-02-20T04:19:16;13.70;;;12.23;;
13807;SDS011;40769;51.512;5.494;2023-02-20T04:21:45;12.07;;;10.98;;
13807;SDS011;40769;51.512;5.494;2023-02-20T04:24:20;13.35;;;12.02;;
13807;SDS011;40769;51.512;5.494;2023-02-20T04:26:51;13.07;;;11.73;;
13807;SDS011;40769;51.512;5.494;2023-02-20T04:29:18;14.20;;;12.70;;
13807;SDS011;40769;51.512;5.494;2023-02-20T04:31:44;13.30;;;12.10;;
13807;SDS011;40769;51.512;5.494;2023-02-20T04:34:10;13.30;;;12.10;;
13807;SDS011;40769;51.512;5.494;2023-02-20T04:36:36;13.07;;;11.77;;
13807;SDS011;40769;51.512;5.494;2023-02-20T04:39:02;14.55;;;13.15;;
13807;SDS011;40769;51.512;5.494;2023-02-20T04:41:27;13.13;;;11.75;;
13807;SDS011;40769;51.512;5.494;2023-02-20T04:43:53;13.77;;;12.38;;
13807;SDS011;40769;51.512;5.494;2023-02-20T04:46:37;13.57;;;11.43;;
13807;SDS011;40769;51.512;5.494;2023-02-20T04:49:03;13.50;;;12.00;;
13807;SDS011;40769;51.512;5.494;2023-02-20T04:51:28;14.50;;;13.00;;
13807;SDS011;40769;51.512;5.494;2023-02-20T04:53:54;13.23;;;11.82;;
13807;SDS011;40769;51.512;5.494;2023-02-20T04:56:21;12.13;;;10.93;;
13807;SDS011;40769;51.512;5.494;2023-02-20T04:58:47;13.52;;;12.10;;
13807;SDS011;40769;51.512;5.494;2023-02-20T05:01:13;12.45;;;11.25;;
13807;SDS011;40769;51.512;5.494;2023-02-20T05:03:40;12.32;;;11.13;;
13807;SDS011;40769;51.512;5.494;2023-02-20T05:06:05;12.43;;;11.13;;
13807;SDS011;40769;51.512;5.494;2023-02-20T05:08:31;13.40;;;11.73;;
13807;SDS011;40769;51.512;5.494;2023-02-20T05:10:56;13.63;;;11.77;;
13807;SDS011;40769;51.512;5.494;2023-02-20T05:13:22;12.00;;;10.73;;
13807;SDS011;40769;51.512;5.494;2023-02-20T05:15:48;9.88;;;8.88;;
13807;SDS011;40769;51.512;5.494;2023-02-20T05:18:21;13.00;;;10.38;;
13807;SDS011;40769;51.512;5.494;2023-02-20T05:20:48;13.10;;;11.70;;
13807;SDS011;40769;51.512;5.494;2023-02-20T05:23:32;11.98;;;10.85;;
13807;SDS011;40769;51.512;5.494;2023-02-20T05:25:58;12.65;;;11.40;;
13807;SDS011;40769;51.512;5.494;2023-02-20T05:28:24;12.93;;;11.57;;
13807;SDS011;40769;51.512;5.494;2023-02-20T05:30:49;11.55;;;10.40;;
13807;SDS011;40769;51.512;5.494;2023-02-20T05:33:15;13.05;;;11.85;;
13807;SDS011;40769;51.512;5.494;2023-02-20T05:35:40;13.48;;;12.10;;
13807;SDS011;40769;51.512;5.494;2023-02-20T05:38:06;14.65;;;12.95;;
13807;SDS011;40769;51.512;5.494;2023-02-20T05:40:32;12.88;;;11.65;;
13807;SDS011;40769;51.512;5.494;2023-02-20T05:42:57;14.82;;;13.32;;
13807;SDS011;40769;51.512;5.494;2023-02-20T05:45:23;17.20;;;14.23;;
13807;SDS011;40769;51.512;5.494;2023-02-20T05:47:48;17.92;;;14.48;;
13807;SDS011;40769;51.512;5.494;2023-02-20T05:50:14;16.13;;;14.52;;
13807;SDS011;40769;51.512;5.494;2023-02-20T05:52:39;14.45;;;12.95;;
13807;SDS011;40769;51.512;5.494;2023-02-20T05:55:06;16.98;;;15.27;;
13807;SDS011;40769;51.512;5.494;2023-02-20T05:57:32;16.77;;;15.10;;
13807;SDS011;40769;51.512;5.494;2023-02-20T05:59:57;18.02;;;16.17;;
13807;SDS011;40769;51.512;5.494;2023-02-20T06:02:23;13.90;;;12.20;;
13807;SDS011;40769;51.512;5.494;2023-02-20T06:04:48;17.02;;;15.32;;
13807;SDS011;40769;51.512;5.494;2023-02-20T06:07:14;17.65;;;15.93;;
13807;SDS011;40769;51.512;5.494;2023-02-20T06:09:40;18.70;;;16.70;;
13807;SDS011;40769;51.512;5.494;2023-02-20T06:12:07;15.85;;;14.30;;
13807;SDS011;40769;51.512;5.494;2023-02-20T06:14:33;16.80;;;15.30;;
13807;SDS011;40769;51.512;5.494;2023-02-20T06:16:58;18.23;;;16.33;;
13807;SDS011;40769;51.512;5.494;2023-02-20T06:19:24;20.02;;;16.38;;
13807;SDS011;40769;51.512;5.494;2023-02-20T06:21:50;18.98;;;17.15;;
13807;SDS011;40769;51.512;5.494;2023-02-20T06:24:17;18.15;;;16.40;;
13807;SDS011;40769;51.512;5.494;2023-02-20T06:26:44;20.33;;;18.10;;
13807;SDS011;40769;51.512;5.494;2023-02-20T06:29:10;20.35;;;18.35;;
13807;SDS011;40769;51.512;5.494;2023-02-20T06:31:37;20.30;;;18.20;;
13807;SDS011;40769;51.512;5.494;2023-02-20T06:34:02;18.10;;;16.38;;
13807;SDS011;40769;51.512;5.494;2023-02-20T06:36:30;20.25;;;18.33;;
13807;SDS011;40769;51.512;5.494;2023-02-20T06:38:58;21.80;;;19.33;;
13807;SDS011;40769;51.512;5.494;2023-02-20T06:41:24;22.05;;;19.67;;
13807;SDS011;40769;51.512;5.494;2023-02-20T06:43:50;19.52;;;17.63;;
13807;SDS011;40769;51.512;5.494;2023-02-20T06:46:16;19.75;;;17.83;;
13807;SDS011;40769;51.512;5.494;2023-02-20T06:48:42;21.00;;;18.98;;
13807;SDS011;40769;51.512;5.494;2023-02-20T06:51:14;19.65;;;17.35;;
13807;SDS011;40769;51.512;5.494;2023-02-20T06:53:41;16.48;;;14.77;;
13807;SDS011;40769;51.512;5.494;2023-02-20T06:56:07;20.85;;;18.85;;
13807;SDS011;40769;51.512;5.494;2023-02-20T06:58:35;20.27;;;18.38;;
13807;SDS011;40769;51.512;5.494;2023-02-20T07:01:01;21.48;;;19.35;;
13807;SDS011;40769;51.512;5.494;2023-02-20T07:03:26;23.02;;;20.73;;
13807;SDS011;40769;51.512;5.494;2023-02-20T07:05:52;23.83;;;21.45;;
13807;SDS011;40769;51.512;5.494;2023-02-20T07:08:18;23.65;;;21.38;;
13807;SDS011;40769;51.512;5.494;2023-02-20T07:10:43;23.85;;;21.55;;
13807;SDS011;40769;51.512;5.494;2023-02-20T07:13:09;20.38;;;18.17;;
13807;SDS011;40769;51.512;5.494;2023-02-20T07:15:35;22.08;;;19.90;;
13807;SDS011;40769;51.512;5.494;2023-02-20T07:18:00;21.67;;;19.35;;
13807;SDS011;40769;51.512;5.494;2023-02-20T07:20:26;22.75;;;20.45;;
13807;SDS011;40769;51.512;5.494;2023-02-20T07:22:52;19.58;;;17.60;;
13807;SDS011;40769;51.512;5.494;2023-02-20T07:25:21;20.92;;;18.83;;
13807;SDS011;40769;51.512;5.494;2023-02-20T07:27:46;23.05;;;20.80;;
13807;SDS011;40769;51.512;5.494;2023-02-20T07:30:12;21.63;;;18.95;;
13807;SDS011;40769;51.512;5.494;2023-02-20T07:32:38;22.17;;;19.98;;
13807;SDS011;40769;51.512;5.494;2023-02-20T07:35:03;22.92;;;20.58;;
13807;SDS011;40769;51.512;5.494;2023-02-20T07:37:29;20.83;;;18.85;;
13807;SDS011;40769;51.512;5.494;2023-02-20T07:39:55;20.33;;;18.42;;
13807;SDS011;40769;51.512;5.494;2023-02-20T07:42:21;20.58;;;18.48;;
13807;SDS011;40769;51.512;5.494;2023-02-20T07:44:47;19.08;;;17.13;;
13807;SDS011;40769;51.512;5.494;2023-02-20T07:47:13;18.73;;;16.83;;
13807;SDS011;40769;51.512;5.494;2023-02-20T07:49:39;18.83;;;16.90;;
13807;SDS011;40769;51.512;5.494;2023-02-20T07:52:05;21.08;;;18.73;;
13807;SDS011;40769;51.512;5.494;2023-02-20T07:54:31;20.00;;;17.92;;
13807;SDS011;40769;51.512;5.494;2023-02-20T07:56:56;19.52;;;17.63;;
13807;SDS011;40769;51.512;5.494;2023-02-20T07:59:22;18.38;;;16.45;;
13807;SDS011;40769;51.512;5.494;2023-02-20T08:01:48;20.60;;;18.60;;
13807;SDS011;40769;51.512;5.494;2023-02-20T08:04:14;20.63;;;17.42;;
13807;SDS011;40769;51.512;5.494;2023-02-20T08:06:40;20.55;;;18.52;;
13807;SDS011;40769;51.512;5.494;2023-02-20T08:09:05;20.48;;;18.30;;
13807;SDS011;40769;51.512;5.494;2023-02-20T08:11:32;20.42;;;18.10;;
13807;SDS011;40769;51.512;5.494;2023-02-20T08:13:58;20.40;;;18.35;;
13807;SDS011;40769;51.512;5.494;2023-02-20T08:16:24;20.33;;;18.33;;
13807;SDS011;40769;51.512;5.494;2023-02-20T08:18:51;19.90;;;17.90;;
13807;SDS011;40769;51.512;5.494;2023-02-20T08:21:17;19.25;;;17.45;;
13807;SDS011;40769;51.512;5.494;2023-02-20T08:23:43;20.63;;;18.45;;
13807;SDS011;40769;51.512;5.494;2023-02-20T08:26:09;20.05;;;17.92;;
13807;SDS011;40769;51.512;5.494;2023-02-20T08:28:35;16.08;;;14.48;;
13807;SDS011;40769;51.512;5.494;2023-02-20T08:31:00;17.98;;;16.20;;
13807;SDS011;40769;51.512;5.494;2023-02-20T08:33:26;18.60;;;16.60;;
13807;SDS011;40769;51.512;5.494;2023-02-20T08:35:52;19.73;;;17.85;;
13807;SDS011;40769;51.512;5.494;2023-02-20T08:40:52;18.92;;;17.02;;
13807;SDS011;40769;51.512;5.494;2023-02-20T08:43:18;19.38;;;17.38;;
13807;SDS011;40769;51.512;5.494;2023-02-20T08:45:44;19.45;;;17.52;;
13807;SDS011;40769;51.512;5.494;2023-02-20T08:48:09;17.27;;;15.48;;
13807;SDS011;40769;51.512;5.494;2023-02-20T08:50:35;18.05;;;16.10;;
13807;SDS011;40769;51.512;5.494;2023-02-20T08:53:01;16.80;;;15.10;;
13807;SDS011;40769;51.512;5.494;2023-02-20T08:55:26;17.15;;;15.50;;
13807;SDS011;40769;51.512;5.494;2023-02-20T08:57:52;16.88;;;15.18;;
13807;SDS011;40769;51.512;5.494;2023-02-20T09:00:19;17.00;;;15.30;;
13807;SDS011;40769;51.512;5.494;2023-02-20T09:02:46;18.50;;;16.35;;
13807;SDS011;40769;51.512;5.494;2023-02-20T09:05:12;18.40;;;16.45;;
13807;SDS011;40769;51.512;5.494;2023-02-20T09:07:39;18.95;;;16.95;;
13807;SDS011;40769;51.512;5.494;2023-02-20T09:10:05;18.35;;;16.45;;
13807;SDS011;40769;51.512;5.494;2023-02-20T09:12:31;18.08;;;16.25;;
13807;SDS011;40769;51.512;5.494;2023-02-20T09:14:57;15.60;;;14.00;;
13807;SDS011;40769;51.512;5.494;2023-02-20T09:17:26;17.02;;;15.25;;
13807;SDS011;40769;51.512;5.494;2023-02-20T09:19:53;16.58;;;14.93;;
13807;SDS011;40769;51.512;5.494;2023-02-20T09:22:22;16.35;;;14.57;;
13807;SDS011;40769;51.512;5.494;2023-02-20T09:24:49;18.10;;;16.17;;
13807;SDS011;40769;51.512;5.494;2023-02-20T09:27:15;17.40;;;15.60;;
13807;SDS011;40769;51.512;5.494;2023-02-20T09:29:41;17.52;;;15.73;;
13807;SDS011;40769;51.512;5.494;2023-02-20T09:32:08;17.88;;;15.93;;
13807;SDS011;40769;51.512;5.494;2023-02-20T09:34:34;14.90;;;13.32;;
13807;SDS011;40769;51.512;5.494;2023-02-20T09:37:00;13.85;;;12.45;;
13807;SDS011;40769;51.512;5.494;2023-02-20T09:39:26;16.70;;;15.00;;
13807;SDS011;40769;51.512;5.494;2023-02-20T09:47:01;16.88;;;15.23;;
13807;SDS011;40769;51.512;5.494;2023-02-20T09:49:32;15.82;;;14.20;;
13807;SDS011;40769;51.512;5.494;2023-02-20T09:52:02;15.50;;;13.52;;
13807;SDS011;40769;51.512;5.494;2023-02-20T09:54:33;13.73;;;12.32;;
13807;SDS011;40769;51.512;5.494;2023-02-20T09:57:09;17.17;;;15.38;;
13807;SDS011;40769;51.512;5.494;2023-02-20T09:59:49;16.35;;;14.65;;
13807;SDS011;40769;51.512;5.494;2023-02-20T10:02:18;16.00;;;13.38;;
13807;SDS011;40769;51.512;5.494;2023-02-20T10:04:52;14.88;;;13.48;;
13807;SDS011;40769;51.512;5.494;2023-02-20T10:07:22;16.58;;;15.02;;
13807;SDS011;40769;51.512;5.494;2023-02-20T10:09:53;16.50;;;14.80;;
13807;SDS011;40769;51.512;5.494;2023-02-20T10:12:25;16.23;;;13.90;;
13807;SDS011;40769;51.512;5.494;2023-02-20T10:15:06;13.70;;;12.27;;
13807;SDS011;40769;51.512;5.494;2023-02-20T10:26:01;15.25;;;13.65;;
13807;SDS011;40769;51.512;5.494;2023-02-20T10:28:30;13.77;;;12.38;;
13807;SDS011;40769;51.512;5.494;2023-02-20T10:30:57;16.05;;;14.45;;
13807;SDS011;40769;51.512;5.494;2023-02-20T10:33:41;11.70;;;10.50;;
13807;SDS011;40769;51.512;5.494;2023-02-20T10:36:13;13.55;;;12.15;;
13807;SDS011;40769;51.512;5.494;2023-02-20T10:41:32;14.73;;;12.77;;
13807;SDS011;40769;51.512;5.494;2023-02-20T10:46:59;13.27;;;11.98;;
13807;SDS011;40769;51.512;5.494;2023-02-20T10:52:13;15.70;;;14.07;;
13807;SDS011;40769;51.512;5.494;2023-02-20T10:54:46;15.20;;;13.73;;
13807;SDS011;40769;51.512;5.494;2023-02-20T10:59:53;12.10;;;11.00;;
13807;SDS011;40769;51.512;5.494;2023-02-20T11:02:28;15.68;;;13.95;;
13807;SDS011;40769;51.512;5.494;2023-02-20T11:05:00;16.92;;;13.90;;
13807;SDS011;40769;51.512;5.494;2023-02-20T11:07:31;12.10;;;10.85;;
13807;SDS011;40769;51.512;5.494;2023-02-20T11:09:57;16.60;;;14.90;;
13807;SDS011;40769;51.512;5.494;2023-02-20T11:15:21;16.23;;;14.63;;
13807;SDS011;40769;51.512;5.494;2023-02-20T11:17:53;16.23;;;14.52;;
13807;SDS011;40769;51.512;5.494;2023-02-20T11:23:05;19.75;;;17.48;;
13807;SDS011;40769;51.512;5.494;2023-02-20T11:25:32;19.85;;;17.85;;
13807;SDS011;40769;51.512;5.494;2023-02-20T11:30:41;20.10;;;18.05;;
13807;SDS011;40769;51.512;5.494;2023-02-20T11:33:14;21.38;;;18.85;;
13807;SDS011;40769;51.512;5.494;2023-02-20T11:35:48;21.00;;;18.80;;
13807;SDS011;40769;51.512;5.494;2023-02-20T11:41:08;21.17;;;19.05;;
13807;SDS011;40769;51.512;5.494;2023-02-20T11:43:46;22.60;;;20.40;;
13807;SDS011;40769;51.512;5.494;2023-02-20T11:51:31;23.40;;;21.08;;
13807;SDS011;40769;51.512;5.494;2023-02-20T11:54:23;24.75;;;22.25;;
13807;SDS011;40769;51.512;5.494;2023-02-20T12:01:53;24.67;;;22.17;;
13807;SDS011;40769;51.512;5.494;2023-02-20T12:04:21;28.35;;;25.38;;
13807;SDS011;40769;51.512;5.494;2023-02-20T12:06:48;25.25;;;22.67;;
13807;SDS011;40769;51.512;5.494;2023-02-20T12:09:18;26.20;;;23.52;;
13807;SDS011;40769;51.512;5.494;2023-02-20T12:11:46;26.70;;;24.00;;
13807;SDS011;40769;51.512;5.494;2023-02-20T12:14:15;28.40;;;25.25;;
13807;SDS011;40769;51.512;5.494;2023-02-20T12:24:46;27.23;;;24.55;;
13807;SDS011;40769;51.512;5.494;2023-02-20T12:39:07;24.17;;;21.85;;
13807;SDS011;40769;51.512;5.494;2023-02-20T12:41:49;27.30;;;24.38;;
13807;SDS011;40769;51.512;5.494;2023-02-20T12:44:44;26.85;;;24.25;;
13807;SDS011;40769;51.512;5.494;2023-02-20T12:47:39;26.73;;;23.90;;
13807;SDS011;40769;51.512;5.494;2023-02-20T12:50:24;26.05;;;23.60;;
13807;SDS011;40769;51.512;5.494;2023-02-20T12:53:45;25.38;;;23.02;;
13807;SDS011;40769;51.512;5.494;2023-02-20T12:56:01;25.10;;;22.63;;
13807;SDS011;40769;51.512;5.494;2023-02-20T13:01:06;26.27;;;23.77;;
13807;SDS011;40769;51.512;5.494;2023-02-20T13:03:40;25.63;;;23.02;;
13807;SDS011;40769;51.512;5.494;2023-02-20T13:06:27;22.98;;;20.63;;
13807;SDS011;40769;51.512;5.494;2023-02-20T13:09:03;24.58;;;22.15;;
13807;SDS011;40769;51.512;5.494;2023-02-20T13:11:43;24.75;;;22.45;;
13807;SDS011;40769;51.512;5.494;2023-02-20T13:19:25;25.65;;;23.25;;
13807;SDS011;40769;51.512;5.494;2023-02-20T13:22:07;26.00;;;23.52;;
13807;SDS011;40769;51.512;5.494;2023-02-20T13:24:34;22.95;;;20.75;;
13807;SDS011;40769;51.512;5.494;2023-02-20T13:27:04;21.52;;;19.38;;
13807;SDS011;40769;51.512;5.494;2023-02-20T13:29:37;23.95;;;21.60;;
13807;SDS011;40769;51.512;5.494;2023-02-20T13:32:23;24.23;;;21.90;;
13807;SDS011;40769;51.512;5.494;2023-02-20T13:34:50;24.45;;;21.80;;
13807;SDS011;40769;51.512;5.494;2023-02-20T13:37:49;24.58;;;22.38;;
13807;SDS011;40769;51.512;5.494;2023-02-20T13:45:37;21.95;;;19.90;;
13807;SDS011;40769;51.512;5.494;2023-02-20T13:50:45;20.15;;;18.42;;
13807;SDS011;40769;51.512;5.494;2023-02-20T13:53:10;23.33;;;21.05;;
13807;SDS011;40769;51.512;5.494;2023-02-20T13:55:36;24.45;;;22.13;;
13807;SDS011;40769;51.512;5.494;2023-02-20T13:58:09;22.92;;;20.83;;
13807;SDS011;40769;51.512;5.494;2023-02-20T14:00:52;22.55;;;20.40;;
13807;SDS011;40769;51.512;5.494;2023-02-20T14:08:31;17.45;;;15.95;;
13807;SDS011;40769;51.512;5.494;2023-02-20T14:13:34;22.88;;;20.45;;
13807;SDS011;40769;51.512;5.494;2023-02-20T14:16:02;21.02;;;19.13;;
13807;SDS011;40769;51.512;5.494;2023-02-20T14:18:29;21.73;;;19.70;;
13807;SDS011;40769;51.512;5.494;2023-02-20T14:23:34;23.30;;;21.05;;
13807;SDS011;40769;51.512;5.494;2023-02-20T14:26:01;23.73;;;21.63;;
13807;SDS011;40769;51.512;5.494;2023-02-20T14:28:44;24.63;;;22.23;;
13807;SDS011;40769;51.512;5.494;2023-02-20T14:31:25;24.25;;;22.00;;
13807;SDS011;40769;51.512;5.494;2023-02-20T14:34:00;26.33;;;23.73;;
13807;SDS011;40769;51.512;5.494;2023-02-20T14:41:52;27.98;;;25.33;;
13807;SDS011;40769;51.512;5.494;2023-02-20T14:44:23;25.30;;;22.90;;
13807;SDS011;40769;51.512;5.494;2023-02-20T14:46:53;20.38;;;18.50;;
13807;SDS011;40769;51.512;5.494;2023-02-20T14:49:26;26.48;;;23.92;;
13807;SDS011;40769;51.512;5.494;2023-02-20T14:54:36;25.30;;;22.85;;
13807;SDS011;40769;51.512;5.494;2023-02-20T14:57:03;23.83;;;21.58;;
13807;SDS011;40769;51.512;5.494;2023-02-20T14:59:33;23.90;;;21.63;;
13807;SDS011;40769;51.512;5.494;2023-02-20T15:07:43;17.92;;;16.33;;
13807;SDS011;40769;51.512;5.494;2023-02-20T15:10:27;18.92;;;17.05;;
13807;SDS011;40769;51.512;5.494;2023-02-20T15:13:21;18.83;;;17.02;;
13807;SDS011;40769;51.512;5.494;2023-02-20T15:15:50;19.25;;;17.55;;
13807;SDS011;40769;51.512;5.494;2023-02-20T15:18:32;19.80;;;18.02;;
13807;SDS011;40769;51.512;5.494;2023-02-20T15:21:05;16.33;;;14.82;;
13807;SDS011;40769;51.512;5.494;2023-02-20T15:23:32;21.38;;;19.35;;
13807;SDS011;40769;51.512;5.494;2023-02-20T15:31:44;22.17;;;20.17;;
13807;SDS011;40769;51.512;5.494;2023-02-20T15:34:19;22.60;;;20.40;;
13807;SDS011;40769;51.512;5.494;2023-02-20T15:36:48;23.73;;;21.42;;
13807;SDS011;40769;51.512;5.494;2023-02-20T15:39:14;21.70;;;19.58;;
13807;SDS011;40769;51.512;5.494;2023-02-20T15:41:41;24.05;;;21.85;;
13807;SDS011;40769;51.512;5.494;2023-02-20T15:44:08;23.95;;;21.52;;
13807;SDS011;40769;51.512;5.494;2023-02-20T15:46:34;23.20;;;21.10;;
13807;SDS011;40769;51.512;5.494;2023-02-20T15:49:00;25.10;;;22.60;;
13807;SDS011;40769;51.512;5.494;2023-02-20T15:51:26;22.00;;;19.90;;
13807;SDS011;40769;51.512;5.494;2023-02-20T15:53:55;23.70;;;21.50;;
13807;SDS011;40769;51.512;5.494;2023-02-20T15:56:22;23.05;;;20.85;;
13807;SDS011;40769;51.512;5.494;2023-02-20T15:58:50;26.15;;;23.73;;
13807;SDS011;40769;51.512;5.494;2023-02-20T16:01:16;24.15;;;22.05;;
13807;SDS011;40769;51.512;5.494;2023-02-20T16:03:42;26.50;;;23.98;;
13807;SDS011;40769;51.512;5.494;2023-02-20T16:06:10;21.60;;;19.70;;
13807;SDS011;40769;51.512;5.494;2023-02-20T16:08:36;24.30;;;22.08;;
13807;SDS011;40769;51.512;5.494;2023-02-20T16:11:02;24.48;;;22.23;;
13807;SDS011;40769;51.512;5.494;2023-02-20T16:15:55;20.45;;;18.55;;
13807;SDS011;40769;51.512;5.494;2023-02-20T16:18:21;21.95;;;20.02;;
13807;SDS011;40769;51.512;5.494;2023-02-20T16:20:48;21.85;;;19.63;;
13807;SDS011;40769;51.512;5.494;2023-02-20T16:23:17;22.23;;;20.05;;
13807;SDS011;40769;51.512;5.494;2023-02-20T16:25:43;19.55;;;17.73;;
13807;SDS011;40769;51.512;5.494;2023-02-20T16:28:12;17.58;;;15.98;;
13807;SDS011;40769;51.512;5.494;2023-02-20T16:30:39;19.60;;;17.73;;
13807;SDS011;40769;51.512;5.494;2023-02-20T16:33:11;19.92;;;17.92;;
13807;SDS011;40769;51.512;5.494;2023-02-20T16:35:48;20.88;;;18.65;;
13807;SDS011;40769;51.512;5.494;2023-02-20T16:38:14;19.10;;;17.20;;
13807;SDS011;40769;51.512;5.494;2023-02-20T16:40:40;18.80;;;17.08;;
13807;SDS011;40769;51.512;5.494;2023-02-20T16:43:06;20.15;;;18.30;;
13807;SDS011;40769;51.512;5.494;2023-02-20T16:45:32;20.35;;;18.48;;
13807;SDS011;40769;51.512;5.494;2023-02-20T16:48:00;20.63;;;18.73;;
13807;SDS011;40769;51.512;5.494;2023-02-20T16:50:27;21.67;;;19.42;;
13807;SDS011;40769;51.512;5.494;2023-02-20T16:52:54;20.00;;;18.20;;
13807;SDS011;40769;51.512;5.494;2023-02-20T16:55:23;19.73;;;17.80;;
13807;SDS011;40769;51.512;5.494;2023-02-20T16:57:50;19.60;;;17.80;;
13807;SDS011;40769;51.512;5.494;2023-02-20T17:00:17;21.48;;;19.48;;
13807;SDS011;40769;51.512;5.494;2023-02-20T17:02:45;25.17;;;22.70;;
13807;SDS011;40769;51.512;5.494;2023-02-20T17:05:27;21.60;;;19.60;;
13807;SDS011;40769;51.512;5.494;2023-02-20T17:07:55;17.08;;;15.48;;